sensor_id;sensor_type;location;lat;lon;timestamp;P1;durP1;ratioP1;P2;durP2;ratioP2
9823;SDS011;4951;50.778;7.196;2023-12-14T00:01:03;10.67;;;9.57;;
9823;SDS011;4951;50.778;7.196;2023-12-14T00:03:38;13.43;;;9.97;;
9823;SDS011;4951;50.778;7.196;2023-12-14T00:06:17;11.90;;;9.40;;
9823;SDS011;4951;50.778;7.196;2023-12-14T00:08:47;14.50;;;11.57;;
9823;SDS011;4951;50.778;7.196;2023-12-14T00:11:21;9.97;;;7.87;;
9823;SDS011;4951;50.778;7.196;2023-12-14T00:13:55;13.63;;;10.47;;
9823;SDS011;4951;50.778;7.196;2023-12-14T00:16:28;12.37;;;10.13;;
9823;SDS011;4951;50.778;7.196;2023-12-14T00:18:58;11.13;;;9.67;;
9823;SDS011;4951;50.778;7.196;2023-12-14T00:21:27;12.80;;;10.80;;
9823;SDS011;4951;50.778;7.196;2023-12-14T00:24:10;13.23;;;11.47;;
9823;SDS011;4951;50.778;7.196;2023-12-14T00:26:42;11.60;;;9.97;;
9823;SDS011;4951;50.778;7.196;2023-12-14T00:29:18;10.30;;;8.87;;
9823;SDS011;4951;50.778;7.196;2023-12-14T00:31:49;10.93;;;9.40;;
9823;SDS011;4951;50.778;7.196;2023-12-14T00:34:21;14.93;;;9.93;;
9823;SDS011;4951;50.778;7.196;2023-12-14T00:36:56;14.00;;;10.20;;
9823;SDS011;4951;50.778;7.196;2023-12-14T00:39:39;12.57;;;10.40;;
9823;SDS011;4951;50.778;7.196;2023-12-14T00:42:08;17.50;;;13.63;;
9823;SDS011;4951;50.778;7.196;2023-12-14T00:44:39;17.30;;;13.47;;
9823;SDS011;4951;50.778;7.196;2023-12-14T00:47:16;19.10;;;14.43;;
9823;SDS011;4951;50.778;7.196;2023-12-14T00:49:53;20.07;;;14.10;;
9823;SDS011;4951;50.778;7.196;2023-12-14T00:52:24;13.10;;;10.77;;
9823;SDS011;4951;50.778;7.196;2023-12-14T00:54:55;15.53;;;12.90;;
9823;SDS011;4951;50.778;7.196;2023-12-14T00:57:24;15.50;;;12.50;;
9823;SDS011;4951;50.778;7.196;2023-12-14T00:59:56;18.67;;;14.03;;
9823;SDS011;4951;50.778;7.196;2023-12-14T01:02:32;18.53;;;14.87;;
9823;SDS011;4951;50.778;7.196;2023-12-14T01:05:06;16.67;;;13.17;;
9823;SDS011;4951;50.778;7.196;2023-12-14T01:07:38;18.00;;;12.27;;
9823;SDS011;4951;50.778;7.196;2023-12-14T01:10:08;14.27;;;11.67;;
9823;SDS011;4951;50.778;7.196;2023-12-14T01:12:38;14.10;;;11.33;;
9823;SDS011;4951;50.778;7.196;2023-12-14T01:15:21;14.33;;;11.70;;
9823;SDS011;4951;50.778;7.196;2023-12-14T01:17:55;15.23;;;12.40;;
9823;SDS011;4951;50.778;7.196;2023-12-14T01:20:35;15.33;;;12.33;;
9823;SDS011;4951;50.778;7.196;2023-12-14T01:23:04;13.97;;;11.07;;
9823;SDS011;4951;50.778;7.196;2023-12-14T01:25:36;11.77;;;9.77;;
9823;SDS011;4951;50.778;7.196;2023-12-14T01:28:06;11.77;;;10.57;;
9823;SDS011;4951;50.778;7.196;2023-12-14T01:30:41;11.40;;;9.63;;
9823;SDS011;4951;50.778;7.196;2023-12-14T01:33:16;9.80;;;8.80;;
9823;SDS011;4951;50.778;7.196;2023-12-14T01:35:49;14.63;;;12.10;;
9823;SDS011;4951;50.778;7.196;2023-12-14T01:38:22;13.97;;;10.47;;
9823;SDS011;4951;50.778;7.196;2023-12-14T01:40:53;16.77;;;13.10;;
9823;SDS011;4951;50.778;7.196;2023-12-14T01:43:27;12.17;;;10.17;;
9823;SDS011;4951;50.778;7.196;2023-12-14T01:45:57;18.33;;;14.20;;
9823;SDS011;4951;50.778;7.196;2023-12-14T01:48:26;15.97;;;12.77;;
9823;SDS011;4951;50.778;7.196;2023-12-14T01:50:59;14.57;;;11.47;;
9823;SDS011;4951;50.778;7.196;2023-12-14T01:53:28;18.53;;;14.37;;
9823;SDS011;4951;50.778;7.196;2023-12-14T01:56:04;15.80;;;13.00;;
9823;SDS011;4951;50.778;7.196;2023-12-14T01:58:37;18.93;;;14.43;;
9823;SDS011;4951;50.778;7.196;2023-12-14T02:01:10;17.20;;;12.77;;
9823;SDS011;4951;50.778;7.196;2023-12-14T02:03:48;16.93;;;13.40;;
9823;SDS011;4951;50.778;7.196;2023-12-14T02:06:22;16.07;;;13.60;;
9823;SDS011;4951;50.778;7.196;2023-12-14T02:08:56;20.23;;;13.27;;
9823;SDS011;4951;50.778;7.196;2023-12-14T02:11:28;17.03;;;13.07;;
9823;SDS011;4951;50.778;7.196;2023-12-14T02:14:02;15.90;;;13.43;;
9823;SDS011;4951;50.778;7.196;2023-12-14T02:16:39;12.67;;;9.87;;
9823;SDS011;4951;50.778;7.196;2023-12-14T02:19:11;15.27;;;11.37;;
9823;SDS011;4951;50.778;7.196;2023-12-14T02:21:42;13.33;;;10.17;;
9823;SDS011;4951;50.778;7.196;2023-12-14T02:24:13;16.33;;;11.90;;
9823;SDS011;4951;50.778;7.196;2023-12-14T02:26:49;14.57;;;12.47;;
9823;SDS011;4951;50.778;7.196;2023-12-14T02:29:23;10.60;;;9.50;;
9823;SDS011;4951;50.778;7.196;2023-12-14T02:31:56;16.23;;;13.70;;
9823;SDS011;4951;50.778;7.196;2023-12-14T02:34:26;10.27;;;9.13;;
9823;SDS011;4951;50.778;7.196;2023-12-14T02:37:01;12.37;;;10.67;;
9823;SDS011;4951;50.778;7.196;2023-12-14T02:39:37;11.40;;;10.13;;
9823;SDS011;4951;50.778;7.196;2023-12-14T02:42:14;14.73;;;11.53;;
9823;SDS011;4951;50.778;7.196;2023-12-14T02:44:50;11.23;;;9.23;;
9823;SDS011;4951;50.778;7.196;2023-12-14T02:47:29;13.70;;;10.93;;
9823;SDS011;4951;50.778;7.196;2023-12-14T02:50:08;13.50;;;10.77;;
9823;SDS011;4951;50.778;7.196;2023-12-14T02:52:38;13.77;;;11.07;;
9823;SDS011;4951;50.778;7.196;2023-12-14T02:55:10;16.87;;;12.70;;
9823;SDS011;4951;50.778;7.196;2023-12-14T02:57:42;13.83;;;10.43;;
9823;SDS011;4951;50.778;7.196;2023-12-14T03:00:22;15.23;;;11.53;;
9823;SDS011;4951;50.778;7.196;2023-12-14T03:03:02;18.73;;;12.40;;
9823;SDS011;4951;50.778;7.196;2023-12-14T03:05:36;11.70;;;10.33;;
9823;SDS011;4951;50.778;7.196;2023-12-14T03:08:27;12.20;;;10.33;;
9823;SDS011;4951;50.778;7.196;2023-12-14T03:11:08;15.63;;;11.80;;
9823;SDS011;4951;50.778;7.196;2023-12-14T03:13:45;12.43;;;10.27;;
9823;SDS011;4951;50.778;7.196;2023-12-14T03:16:19;10.03;;;8.17;;
9823;SDS011;4951;50.778;7.196;2023-12-14T03:19:07;11.03;;;9.37;;
9823;SDS011;4951;50.778;7.196;2023-12-14T03:21:56;11.53;;;9.63;;
9823;SDS011;4951;50.778;7.196;2023-12-14T03:24:31;16.50;;;11.93;;
9823;SDS011;4951;50.778;7.196;2023-12-14T03:27:05;14.63;;;12.13;;
9823;SDS011;4951;50.778;7.196;2023-12-14T03:29:39;12.83;;;10.97;;
9823;SDS011;4951;50.778;7.196;2023-12-14T03:32:19;13.03;;;10.70;;
9823;SDS011;4951;50.778;7.196;2023-12-14T03:34:55;14.27;;;12.17;;
9823;SDS011;4951;50.778;7.196;2023-12-14T03:37:43;15.73;;;12.30;;
9823;SDS011;4951;50.778;7.196;2023-12-14T03:40:30;12.23;;;9.63;;
9823;SDS011;4951;50.778;7.196;2023-12-14T03:43:03;16.03;;;12.50;;
9823;SDS011;4951;50.778;7.196;2023-12-14T03:45:51;16.57;;;13.17;;
9823;SDS011;4951;50.778;7.196;2023-12-14T03:48:27;14.00;;;11.53;;
9823;SDS011;4951;50.778;7.196;2023-12-14T03:50:56;13.00;;;11.57;;
9823;SDS011;4951;50.778;7.196;2023-12-14T03:53:25;15.70;;;12.63;;
9823;SDS011;4951;50.778;7.196;2023-12-14T03:55:57;15.43;;;12.87;;
9823;SDS011;4951;50.778;7.196;2023-12-14T03:58:29;12.07;;;9.53;;
9823;SDS011;4951;50.778;7.196;2023-12-14T04:01:16;13.80;;;12.30;;
9823;SDS011;4951;50.778;7.196;2023-12-14T04:03:56;17.30;;;13.57;;
9823;SDS011;4951;50.778;7.196;2023-12-14T04:06:31;18.87;;;13.10;;
9823;SDS011;4951;50.778;7.196;2023-12-14T04:09:18;19.23;;;13.80;;
9823;SDS011;4951;50.778;7.196;2023-12-14T04:11:54;17.53;;;11.47;;
9823;SDS011;4951;50.778;7.196;2023-12-14T04:14:42;13.27;;;9.80;;
9823;SDS011;4951;50.778;7.196;2023-12-14T04:17:31;30.50;;;17.13;;
9823;SDS011;4951;50.778;7.196;2023-12-14T04:20:08;39.30;;;21.40;;
9823;SDS011;4951;50.778;7.196;2023-12-14T04:22:44;43.93;;;24.63;;
9823;SDS011;4951;50.778;7.196;2023-12-14T04:25:17;56.43;;;26.10;;
9823;SDS011;4951;50.778;7.196;2023-12-14T04:28:04;46.20;;;25.80;;
9823;SDS011;4951;50.778;7.196;2023-12-14T04:30:53;51.40;;;25.10;;
9823;SDS011;4951;50.778;7.196;2023-12-14T04:33:23;57.80;;;27.07;;
9823;SDS011;4951;50.778;7.196;2023-12-14T04:36:10;67.37;;;28.57;;
9823;SDS011;4951;50.778;7.196;2023-12-14T04:38:57;59.53;;;26.93;;
9823;SDS011;4951;50.778;7.196;2023-12-14T04:41:45;47.20;;;26.37;;
9823;SDS011;4951;50.778;7.196;2023-12-14T04:44:22;53.27;;;28.20;;
9823;SDS011;4951;50.778;7.196;2023-12-14T04:47:12;50.17;;;26.73;;
9823;SDS011;4951;50.778;7.196;2023-12-14T04:50:02;56.20;;;28.83;;
9823;SDS011;4951;50.778;7.196;2023-12-14T04:52:36;56.43;;;29.30;;
9823;SDS011;4951;50.778;7.196;2023-12-14T04:55:07;58.13;;;29.33;;
9823;SDS011;4951;50.778;7.196;2023-12-14T04:57:40;48.13;;;27.80;;
9823;SDS011;4951;50.778;7.196;2023-12-14T05:00:17;35.23;;;23.87;;
9823;SDS011;4951;50.778;7.196;2023-12-14T05:03:06;37.40;;;22.40;;
9823;SDS011;4951;50.778;7.196;2023-12-14T05:05:38;25.60;;;19.33;;
9823;SDS011;4951;50.778;7.196;2023-12-14T05:08:14;27.60;;;20.00;;
9823;SDS011;4951;50.778;7.196;2023-12-14T05:10:46;25.90;;;18.47;;
9823;SDS011;4951;50.778;7.196;2023-12-14T05:13:18;28.03;;;18.80;;
9823;SDS011;4951;50.778;7.196;2023-12-14T05:15:55;19.30;;;15.30;;
9823;SDS011;4951;50.778;7.196;2023-12-14T05:18:37;20.77;;;15.83;;
9823;SDS011;4951;50.778;7.196;2023-12-14T05:21:36;16.70;;;13.90;;
9823;SDS011;4951;50.778;7.196;2023-12-14T05:24:17;17.73;;;13.30;;
9823;SDS011;4951;50.778;7.196;2023-12-14T05:26:49;19.73;;;14.50;;
9823;SDS011;4951;50.778;7.196;2023-12-14T05:29:18;18.17;;;14.40;;
9823;SDS011;4951;50.778;7.196;2023-12-14T05:31:52;16.60;;;13.37;;
9823;SDS011;4951;50.778;7.196;2023-12-14T05:34:23;18.23;;;15.20;;
9823;SDS011;4951;50.778;7.196;2023-12-14T05:37:11;17.67;;;13.90;;
9823;SDS011;4951;50.778;7.196;2023-12-14T05:39:45;17.57;;;14.27;;
9823;SDS011;4951;50.778;7.196;2023-12-14T05:42:35;15.13;;;13.03;;
9823;SDS011;4951;50.778;7.196;2023-12-14T05:45:04;17.57;;;14.47;;
9823;SDS011;4951;50.778;7.196;2023-12-14T05:47:35;21.40;;;16.60;;
9823;SDS011;4951;50.778;7.196;2023-12-14T05:50:08;19.00;;;15.83;;
9823;SDS011;4951;50.778;7.196;2023-12-14T05:52:45;16.70;;;14.13;;
9823;SDS011;4951;50.778;7.196;2023-12-14T05:55:27;18.97;;;14.63;;
9823;SDS011;4951;50.778;7.196;2023-12-14T05:58:02;23.77;;;18.07;;
9823;SDS011;4951;50.778;7.196;2023-12-14T06:00:32;18.73;;;15.47;;
9823;SDS011;4951;50.778;7.196;2023-12-14T06:03:14;20.37;;;16.83;;
9823;SDS011;4951;50.778;7.196;2023-12-14T06:05:48;20.53;;;16.00;;
9823;SDS011;4951;50.778;7.196;2023-12-14T06:08:22;23.27;;;17.97;;
9823;SDS011;4951;50.778;7.196;2023-12-14T06:10:54;31.33;;;21.57;;
9823;SDS011;4951;50.778;7.196;2023-12-14T06:13:24;30.97;;;20.73;;
9823;SDS011;4951;50.778;7.196;2023-12-14T06:16:00;29.27;;;21.00;;
9823;SDS011;4951;50.778;7.196;2023-12-14T06:18:31;28.63;;;21.27;;
9823;SDS011;4951;50.778;7.196;2023-12-14T06:21:04;34.33;;;24.43;;
9823;SDS011;4951;50.778;7.196;2023-12-14T06:23:36;36.83;;;24.80;;
9823;SDS011;4951;50.778;7.196;2023-12-14T06:26:08;38.10;;;25.80;;
9823;SDS011;4951;50.778;7.196;2023-12-14T06:28:55;39.13;;;25.30;;
9823;SDS011;4951;50.778;7.196;2023-12-14T06:31:26;35.97;;;23.70;;
9823;SDS011;4951;50.778;7.196;2023-12-14T06:34:03;40.83;;;26.60;;
9823;SDS011;4951;50.778;7.196;2023-12-14T06:36:44;42.13;;;26.97;;
9823;SDS011;4951;50.778;7.196;2023-12-14T06:39:17;43.03;;;28.03;;
9823;SDS011;4951;50.778;7.196;2023-12-14T06:41:47;40.37;;;26.47;;
9823;SDS011;4951;50.778;7.196;2023-12-14T06:44:17;44.40;;;28.10;;
9823;SDS011;4951;50.778;7.196;2023-12-14T06:46:49;42.10;;;26.17;;
9823;SDS011;4951;50.778;7.196;2023-12-14T06:49:22;39.50;;;24.50;;
9823;SDS011;4951;50.778;7.196;2023-12-14T06:51:54;43.83;;;27.33;;
9823;SDS011;4951;50.778;7.196;2023-12-14T06:54:23;44.57;;;27.60;;
9823;SDS011;4951;50.778;7.196;2023-12-14T06:56:52;46.37;;;29.43;;
9823;SDS011;4951;50.778;7.196;2023-12-14T06:59:26;47.97;;;29.80;;
9823;SDS011;4951;50.778;7.196;2023-12-14T07:01:56;40.80;;;26.87;;
9823;SDS011;4951;50.778;7.196;2023-12-14T07:04:29;41.33;;;26.23;;
9823;SDS011;4951;50.778;7.196;2023-12-14T07:07:09;50.70;;;29.60;;
9823;SDS011;4951;50.778;7.196;2023-12-14T07:09:49;43.50;;;28.00;;
9823;SDS011;4951;50.778;7.196;2023-12-14T07:12:24;44.33;;;28.30;;
9823;SDS011;4951;50.778;7.196;2023-12-14T07:14:57;41.47;;;25.43;;
9823;SDS011;4951;50.778;7.196;2023-12-14T07:17:25;46.43;;;28.03;;
9823;SDS011;4951;50.778;7.196;2023-12-14T07:19:56;49.23;;;30.50;;
9823;SDS011;4951;50.778;7.196;2023-12-14T07:22:32;44.93;;;25.63;;
9823;SDS011;4951;50.778;7.196;2023-12-14T07:25:02;39.23;;;25.77;;
9823;SDS011;4951;50.778;7.196;2023-12-14T07:27:34;51.77;;;29.57;;
9823;SDS011;4951;50.778;7.196;2023-12-14T07:30:02;39.37;;;25.17;;
9823;SDS011;4951;50.778;7.196;2023-12-14T07:32:34;51.30;;;29.70;;
9823;SDS011;4951;50.778;7.196;2023-12-14T07:35:16;36.47;;;23.30;;
9823;SDS011;4951;50.778;7.196;2023-12-14T07:37:56;43.10;;;26.07;;
9823;SDS011;4951;50.778;7.196;2023-12-14T07:40:30;38.27;;;24.37;;
9823;SDS011;4951;50.778;7.196;2023-12-14T07:43:07;39.07;;;23.50;;
9823;SDS011;4951;50.778;7.196;2023-12-14T07:45:39;42.77;;;28.00;;
9823;SDS011;4951;50.778;7.196;2023-12-14T07:48:10;50.90;;;29.80;;
9823;SDS011;4951;50.778;7.196;2023-12-14T07:50:46;60.17;;;33.77;;
9823;SDS011;4951;50.778;7.196;2023-12-14T07:53:34;72.30;;;36.27;;
9823;SDS011;4951;50.778;7.196;2023-12-14T07:56:07;61.23;;;34.27;;
9823;SDS011;4951;50.778;7.196;2023-12-14T07:58:48;61.07;;;34.13;;
9823;SDS011;4951;50.778;7.196;2023-12-14T08:01:17;59.13;;;33.37;;
9823;SDS011;4951;50.778;7.196;2023-12-14T08:03:54;64.20;;;34.60;;
9823;SDS011;4951;50.778;7.196;2023-12-14T08:06:28;67.97;;;36.43;;
9823;SDS011;4951;50.778;7.196;2023-12-14T08:09:05;65.27;;;33.73;;
9823;SDS011;4951;50.778;7.196;2023-12-14T08:11:38;70.47;;;36.53;;
9823;SDS011;4951;50.778;7.196;2023-12-14T08:14:13;61.17;;;34.33;;
9823;SDS011;4951;50.778;7.196;2023-12-14T08:16:42;71.40;;;36.97;;
9823;SDS011;4951;50.778;7.196;2023-12-14T08:19:13;67.37;;;34.73;;
9823;SDS011;4951;50.778;7.196;2023-12-14T08:21:42;62.57;;;33.77;;
9823;SDS011;4951;50.778;7.196;2023-12-14T08:24:18;72.53;;;35.67;;
9823;SDS011;4951;50.778;7.196;2023-12-14T08:26:51;81.17;;;38.10;;
9823;SDS011;4951;50.778;7.196;2023-12-14T08:29:29;77.67;;;35.83;;
9823;SDS011;4951;50.778;7.196;2023-12-14T08:32:06;72.17;;;32.53;;
9823;SDS011;4951;50.778;7.196;2023-12-14T08:34:40;75.73;;;34.27;;
9823;SDS011;4951;50.778;7.196;2023-12-14T08:37:19;72.30;;;34.07;;
9823;SDS011;4951;50.778;7.196;2023-12-14T08:39:50;77.80;;;34.10;;
9823;SDS011;4951;50.778;7.196;2023-12-14T08:42:22;62.07;;;28.70;;
9823;SDS011;4951;50.778;7.196;2023-12-14T08:44:53;72.87;;;32.20;;
9823;SDS011;4951;50.778;7.196;2023-12-14T08:47:29;79.90;;;33.17;;
9823;SDS011;4951;50.778;7.196;2023-12-14T08:50:07;73.00;;;31.10;;
9823;SDS011;4951;50.778;7.196;2023-12-14T08:52:40;58.40;;;26.83;;
9823;SDS011;4951;50.778;7.196;2023-12-14T08:55:22;56.10;;;27.87;;
9823;SDS011;4951;50.778;7.196;2023-12-14T08:57:51;52.47;;;27.27;;
9823;SDS011;4951;50.778;7.196;2023-12-14T09:00:23;60.20;;;28.80;;
9823;SDS011;4951;50.778;7.196;2023-12-14T09:02:55;62.90;;;27.07;;
9823;SDS011;4951;50.778;7.196;2023-12-14T09:05:28;47.70;;;24.53;;
9823;SDS011;4951;50.778;7.196;2023-12-14T09:07:59;54.87;;;25.47;;
9823;SDS011;4951;50.778;7.196;2023-12-14T09:10:33;43.60;;;22.30;;
9823;SDS011;4951;50.778;7.196;2023-12-14T09:13:11;49.23;;;24.00;;
9823;SDS011;4951;50.778;7.196;2023-12-14T09:15:39;35.90;;;20.43;;
9823;SDS011;4951;50.778;7.196;2023-12-14T09:18:10;37.30;;;20.03;;
9823;SDS011;4951;50.778;7.196;2023-12-14T09:20:46;42.07;;;21.87;;
9823;SDS011;4951;50.778;7.196;2023-12-14T09:23:18;47.10;;;23.60;;
9823;SDS011;4951;50.778;7.196;2023-12-14T09:25:49;39.47;;;20.47;;
9823;SDS011;4951;50.778;7.196;2023-12-14T09:28:20;41.80;;;21.37;;
9823;SDS011;4951;50.778;7.196;2023-12-14T09:30:50;52.70;;;24.53;;
9823;SDS011;4951;50.778;7.196;2023-12-14T09:33:22;43.37;;;21.97;;
9823;SDS011;4951;50.778;7.196;2023-12-14T09:35:55;50.50;;;24.07;;
9823;SDS011;4951;50.778;7.196;2023-12-14T09:38:27;40.50;;;19.50;;
9823;SDS011;4951;50.778;7.196;2023-12-14T09:41:00;42.63;;;21.53;;
9823;SDS011;4951;50.778;7.196;2023-12-14T09:43:33;46.17;;;23.50;;
9823;SDS011;4951;50.778;7.196;2023-12-14T09:46:05;50.73;;;23.27;;
9823;SDS011;4951;50.778;7.196;2023-12-14T09:48:34;43.00;;;22.40;;
9823;SDS011;4951;50.778;7.196;2023-12-14T09:51:04;45.77;;;24.50;;
9823;SDS011;4951;50.778;7.196;2023-12-14T09:53:35;41.63;;;21.57;;
9823;SDS011;4951;50.778;7.196;2023-12-14T09:56:07;38.87;;;20.07;;
9823;SDS011;4951;50.778;7.196;2023-12-14T09:58:37;38.23;;;19.07;;
9823;SDS011;4951;50.778;7.196;2023-12-14T10:01:21;39.27;;;19.70;;
9823;SDS011;4951;50.778;7.196;2023-12-14T10:04:09;35.60;;;18.67;;
9823;SDS011;4951;50.778;7.196;2023-12-14T10:06:43;34.13;;;18.93;;
9823;SDS011;4951;50.778;7.196;2023-12-14T10:09:22;35.40;;;18.43;;
9823;SDS011;4951;50.778;7.196;2023-12-14T10:12:04;41.23;;;20.37;;
9823;SDS011;4951;50.778;7.196;2023-12-14T10:14:42;35.40;;;18.13;;
9823;SDS011;4951;50.778;7.196;2023-12-14T10:17:16;34.00;;;18.43;;
9823;SDS011;4951;50.778;7.196;2023-12-14T10:19:49;39.53;;;20.30;;
9823;SDS011;4951;50.778;7.196;2023-12-14T10:22:21;34.27;;;18.97;;
9823;SDS011;4951;50.778;7.196;2023-12-14T10:24:51;36.90;;;19.53;;
9823;SDS011;4951;50.778;7.196;2023-12-14T10:27:22;36.27;;;19.90;;
9823;SDS011;4951;50.778;7.196;2023-12-14T10:29:58;39.07;;;20.70;;
9823;SDS011;4951;50.778;7.196;2023-12-14T10:32:46;38.83;;;19.60;;
9823;SDS011;4951;50.778;7.196;2023-12-14T10:35:18;31.17;;;16.27;;
9823;SDS011;4951;50.778;7.196;2023-12-14T10:37:52;30.20;;;18.27;;
9823;SDS011;4951;50.778;7.196;2023-12-14T10:40:23;39.13;;;20.37;;
9823;SDS011;4951;50.778;7.196;2023-12-14T10:42:58;36.40;;;18.90;;
9823;SDS011;4951;50.778;7.196;2023-12-14T10:45:31;34.27;;;18.57;;
9823;SDS011;4951;50.778;7.196;2023-12-14T10:48:00;38.77;;;20.27;;
9823;SDS011;4951;50.778;7.196;2023-12-14T10:50:32;46.40;;;22.40;;
9823;SDS011;4951;50.778;7.196;2023-12-14T10:53:06;37.03;;;20.87;;
9823;SDS011;4951;50.778;7.196;2023-12-14T10:55:40;35.87;;;19.83;;
9823;SDS011;4951;50.778;7.196;2023-12-14T10:58:19;36.97;;;20.40;;
9823;SDS011;4951;50.778;7.196;2023-12-14T11:00:58;31.83;;;18.30;;
9823;SDS011;4951;50.778;7.196;2023-12-14T11:03:32;36.53;;;19.60;;
9823;SDS011;4951;50.778;7.196;2023-12-14T11:06:20;29.97;;;17.80;;
9823;SDS011;4951;50.778;7.196;2023-12-14T11:09:04;32.03;;;17.77;;
9823;SDS011;4951;50.778;7.196;2023-12-14T11:11:40;30.97;;;18.20;;
9823;SDS011;4951;50.778;7.196;2023-12-14T11:14:18;32.50;;;18.80;;
9823;SDS011;4951;50.778;7.196;2023-12-14T11:16:50;37.53;;;20.00;;
9823;SDS011;4951;50.778;7.196;2023-12-14T11:19:26;34.40;;;19.87;;
9823;SDS011;4951;50.778;7.196;2023-12-14T11:22:10;28.30;;;17.10;;
9823;SDS011;4951;50.778;7.196;2023-12-14T11:24:53;29.07;;;17.67;;
9823;SDS011;4951;50.778;7.196;2023-12-14T11:30:17;27.67;;;17.07;;
9823;SDS011;4951;50.778;7.196;2023-12-14T11:32:49;34.93;;;17.43;;
9823;SDS011;4951;50.778;7.196;2023-12-14T11:35:19;34.37;;;18.43;;
9823;SDS011;4951;50.778;7.196;2023-12-14T11:37:48;36.83;;;18.23;;
9823;SDS011;4951;50.778;7.196;2023-12-14T11:40:22;28.10;;;16.97;;
9823;SDS011;4951;50.778;7.196;2023-12-14T11:42:57;31.87;;;17.27;;
9823;SDS011;4951;50.778;7.196;2023-12-14T11:46:03;24.50;;;14.87;;
9823;SDS011;4951;50.778;7.196;2023-12-14T11:48:32;26.93;;;16.50;;
9823;SDS011;4951;50.778;7.196;2023-12-14T11:51:09;30.00;;;17.03;;
9823;SDS011;4951;50.778;7.196;2023-12-14T11:53:47;25.37;;;17.40;;
9823;SDS011;4951;50.778;7.196;2023-12-14T11:56:17;21.00;;;14.53;;
9823;SDS011;4951;50.778;7.196;2023-12-14T11:58:50;28.43;;;16.93;;
9823;SDS011;4951;50.778;7.196;2023-12-14T12:01:26;31.07;;;18.27;;
9823;SDS011;4951;50.778;7.196;2023-12-14T12:04:08;32.93;;;19.23;;
9823;SDS011;4951;50.778;7.196;2023-12-14T12:06:38;27.00;;;18.33;;
9823;SDS011;4951;50.778;7.196;2023-12-14T12:09:08;33.43;;;20.07;;
9823;SDS011;4951;50.778;7.196;2023-12-14T12:11:40;30.67;;;20.13;;
9823;SDS011;4951;50.778;7.196;2023-12-14T12:14:10;27.67;;;18.70;;
9823;SDS011;4951;50.778;7.196;2023-12-14T12:16:43;30.93;;;21.50;;
9823;SDS011;4951;50.778;7.196;2023-12-14T12:19:22;39.67;;;24.20;;
9823;SDS011;4951;50.778;7.196;2023-12-14T12:21:51;43.10;;;26.17;;
9823;SDS011;4951;50.778;7.196;2023-12-14T12:24:22;39.00;;;26.00;;
9823;SDS011;4951;50.778;7.196;2023-12-14T12:26:54;41.17;;;25.60;;
9823;SDS011;4951;50.778;7.196;2023-12-14T12:29:28;40.27;;;26.10;;
9823;SDS011;4951;50.778;7.196;2023-12-14T12:32:05;34.73;;;23.33;;
9823;SDS011;4951;50.778;7.196;2023-12-14T12:34:40;39.23;;;25.27;;
9823;SDS011;4951;50.778;7.196;2023-12-14T12:37:12;39.47;;;25.70;;
9823;SDS011;4951;50.778;7.196;2023-12-14T12:39:55;49.20;;;28.30;;
9823;SDS011;4951;50.778;7.196;2023-12-14T12:42:30;40.90;;;25.90;;
9823;SDS011;4951;50.778;7.196;2023-12-14T12:45:06;39.30;;;24.07;;
9823;SDS011;4951;50.778;7.196;2023-12-14T12:47:39;45.70;;;27.87;;
9823;SDS011;4951;50.778;7.196;2023-12-14T12:50:18;44.27;;;26.80;;
9823;SDS011;4951;50.778;7.196;2023-12-14T12:53:02;44.47;;;26.90;;
9823;SDS011;4951;50.778;7.196;2023-12-14T12:55:31;46.50;;;27.23;;
9823;SDS011;4951;50.778;7.196;2023-12-14T12:58:06;39.03;;;24.23;;
9823;SDS011;4951;50.778;7.196;2023-12-14T13:00:38;35.23;;;24.13;;
9823;SDS011;4951;50.778;7.196;2023-12-14T13:03:15;41.83;;;24.90;;
9823;SDS011;4951;50.778;7.196;2023-12-14T13:05:44;39.70;;;26.13;;
9823;SDS011;4951;50.778;7.196;2023-12-14T13:08:14;39.20;;;24.07;;
9823;SDS011;4951;50.778;7.196;2023-12-14T13:10:46;38.43;;;23.87;;
9823;SDS011;4951;50.778;7.196;2023-12-14T13:13:21;35.13;;;23.37;;
9823;SDS011;4951;50.778;7.196;2023-12-14T13:15:52;31.67;;;22.13;;
9823;SDS011;4951;50.778;7.196;2023-12-14T13:18:26;33.73;;;22.40;;
9823;SDS011;4951;50.778;7.196;2023-12-14T13:20:58;31.97;;;21.70;;
9823;SDS011;4951;50.778;7.196;2023-12-14T13:23:31;38.50;;;24.60;;
9823;SDS011;4951;50.778;7.196;2023-12-14T13:26:05;33.40;;;23.43;;
9823;SDS011;4951;50.778;7.196;2023-12-14T13:28:38;34.60;;;24.07;;
9823;SDS011;4951;50.778;7.196;2023-12-14T13:31:08;40.67;;;25.80;;
9823;SDS011;4951;50.778;7.196;2023-12-14T13:33:50;34.83;;;24.40;;
9823;SDS011;4951;50.778;7.196;2023-12-14T13:36:26;36.87;;;25.20;;
9823;SDS011;4951;50.778;7.196;2023-12-14T13:38:57;37.00;;;24.80;;
9823;SDS011;4951;50.778;7.196;2023-12-14T13:41:27;33.27;;;23.83;;
9823;SDS011;4951;50.778;7.196;2023-12-14T13:43:59;32.87;;;22.47;;
9823;SDS011;4951;50.778;7.196;2023-12-14T13:46:30;32.27;;;22.97;;
9823;SDS011;4951;50.778;7.196;2023-12-14T13:49:10;32.37;;;23.13;;
9823;SDS011;4951;50.778;7.196;2023-12-14T13:51:39;34.67;;;24.37;;
9823;SDS011;4951;50.778;7.196;2023-12-14T13:54:14;30.97;;;23.37;;
9823;SDS011;4951;50.778;7.196;2023-12-14T13:56:46;37.03;;;25.20;;
9823;SDS011;4951;50.778;7.196;2023-12-14T13:59:20;33.00;;;22.50;;
9823;SDS011;4951;50.778;7.196;2023-12-14T14:01:51;40.80;;;27.37;;
9823;SDS011;4951;50.778;7.196;2023-12-14T14:04:30;36.40;;;25.80;;
9823;SDS011;4951;50.778;7.196;2023-12-14T14:07:00;38.67;;;26.50;;
9823;SDS011;4951;50.778;7.196;2023-12-14T14:09:32;32.50;;;23.10;;
9823;SDS011;4951;50.778;7.196;2023-12-14T14:12:07;36.53;;;24.17;;
9823;SDS011;4951;50.778;7.196;2023-12-14T14:14:39;32.70;;;22.77;;
9823;SDS011;4951;50.778;7.196;2023-12-14T14:17:10;37.73;;;23.17;;
9823;SDS011;4951;50.778;7.196;2023-12-14T14:19:44;29.37;;;21.53;;
9823;SDS011;4951;50.778;7.196;2023-12-14T14:22:17;26.50;;;18.93;;
9823;SDS011;4951;50.778;7.196;2023-12-14T14:24:53;27.27;;;19.57;;
9823;SDS011;4951;50.778;7.196;2023-12-14T14:27:27;21.93;;;16.57;;
9823;SDS011;4951;50.778;7.196;2023-12-14T14:30:00;23.27;;;17.03;;
9823;SDS011;4951;50.778;7.196;2023-12-14T14:32:35;21.37;;;16.70;;
9823;SDS011;4951;50.778;7.196;2023-12-14T14:35:09;23.17;;;17.90;;
9823;SDS011;4951;50.778;7.196;2023-12-14T14:37:39;19.80;;;15.33;;
9823;SDS011;4951;50.778;7.196;2023-12-14T14:40:18;19.33;;;14.67;;
9823;SDS011;4951;50.778;7.196;2023-12-14T14:42:48;17.10;;;12.40;;
9823;SDS011;4951;50.778;7.196;2023-12-14T14:45:19;17.23;;;13.27;;
9823;SDS011;4951;50.778;7.196;2023-12-14T14:47:47;18.27;;;13.93;;
9823;SDS011;4951;50.778;7.196;2023-12-14T14:50:22;19.17;;;14.37;;
9823;SDS011;4951;50.778;7.196;2023-12-14T14:52:56;18.50;;;14.20;;
9823;SDS011;4951;50.778;7.196;2023-12-14T14:55:25;17.40;;;14.70;;
9823;SDS011;4951;50.778;7.196;2023-12-14T14:57:55;18.13;;;13.63;;
9823;SDS011;4951;50.778;7.196;2023-12-14T15:00:29;18.47;;;14.13;;
9823;SDS011;4951;50.778;7.196;2023-12-14T15:03:02;17.13;;;13.70;;
9823;SDS011;4951;50.778;7.196;2023-12-14T15:05:42;24.07;;;16.57;;
9823;SDS011;4951;50.778;7.196;2023-12-14T15:08:10;20.07;;;15.70;;
9823;SDS011;4951;50.778;7.196;2023-12-14T15:10:41;15.43;;;13.43;;
9823;SDS011;4951;50.778;7.196;2023-12-14T15:13:12;22.93;;;17.10;;
9823;SDS011;4951;50.778;7.196;2023-12-14T15:15:48;18.90;;;14.40;;
9823;SDS011;4951;50.778;7.196;2023-12-14T15:18:22;18.03;;;13.67;;
9823;SDS011;4951;50.778;7.196;2023-12-14T15:21:00;20.17;;;17.03;;
9823;SDS011;4951;50.778;7.196;2023-12-14T15:23:33;19.30;;;15.47;;
9823;SDS011;4951;50.778;7.196;2023-12-14T15:26:05;16.77;;;13.80;;
9823;SDS011;4951;50.778;7.196;2023-12-14T15:28:34;18.37;;;15.70;;
9823;SDS011;4951;50.778;7.196;2023-12-14T15:31:06;20.47;;;16.70;;
9823;SDS011;4951;50.778;7.196;2023-12-14T15:33:39;20.97;;;17.03;;
9823;SDS011;4951;50.778;7.196;2023-12-14T15:36:13;19.10;;;15.53;;